createdAt,value
2017-06-30T00:00:30.163Z,95.84
2017-06-30T00:01:11.060Z,95.65
2017-06-30T00:01:51.951Z,95.65
2017-06-30T00:02:32.856Z,95.41
2017-06-30T00:03:13.740Z,95.6
2017-06-30T00:03:54.620Z,95.6
2017-06-30T00:04:35.512Z,95.17
2017-06-30T00:05:16.399Z,94.79
2017-06-30T00:05:57.291Z,95.65
2017-06-30T00:06:38.181Z,95.36
2017-06-30T00:07:19.079Z,95.84
2017-06-30T00:07:59.966Z,95.56
2017-06-30T00:08:40.852Z,95.46
2017-06-30T00:09:21.743Z,96.42
2017-06-30T00:10:02.640Z,96.7
2017-06-30T00:10:43.527Z,96.51
2017-06-30T00:11:24.428Z,95.94
2017-06-30T00:12:05.323Z,96.03
2017-06-30T00:12:46.214Z,96.7
2017-06-30T00:13:27.110Z,96.99
2017-06-30T00:14:07.996Z,96.89
2017-06-30T00:14:48.892Z,96.7
2017-06-30T00:15:29.776Z,96.51
2017-06-30T00:16:10.662Z,96.42
2017-06-30T00:16:51.552Z,96.61
2017-06-30T00:17:32.445Z,95.84
2017-06-30T00:18:13.336Z,96.89
2017-06-30T00:18:54.229Z,96.7
2017-06-30T00:19:35.122Z,96.8
2017-06-30T00:20:16.017Z,96.7
2017-06-30T00:20:56.909Z,96.89
2017-06-30T00:21:37.814Z,96.89
2017-06-30T00:22:18.691Z,96.89
2017-06-30T00:22:59.579Z,96.61
2017-06-30T00:23:40.469Z,96.51
2017-06-30T00:24:21.368Z,96.7
2017-06-30T00:25:02.263Z,95.65
2017-06-30T00:25:43.150Z,95.36
2017-06-30T00:26:24.044Z,95.94
2017-06-30T00:27:04.936Z,96.03
2017-06-30T00:27:45.835Z,95.36
2017-06-30T00:28:26.726Z,95.94
2017-06-30T00:29:07.612Z,96.03
2017-06-30T00:29:48.499Z,95.75
2017-06-30T00:30:29.393Z,95.56
2017-06-30T00:31:10.287Z,95.36
2017-06-30T00:31:51.181Z,96.56
2017-06-30T00:32:32.069Z,96.84
2017-06-30T00:33:12.980Z,97.14
2017-06-30T00:33:53.852Z,96.66
2017-06-30T00:34:34.743Z,97.14
2017-06-30T00:35:15.632Z,96.94
2017-06-30T00:35:56.522Z,96.84
2017-06-30T00:36:37.415Z,97.52
2017-06-30T00:37:18.311Z,97.56
2017-06-30T00:37:59.200Z,96.7
2017-06-30T00:38:40.089Z,96.42
2017-06-30T00:39:20.983Z,96.89
2017-06-30T00:40:01.874Z,96.75
2017-06-30T00:40:42.783Z,96.47
2017-06-30T00:41:23.674Z,95.94
2017-06-30T00:42:04.571Z,96.75
2017-06-30T00:42:45.456Z,96.84
2017-06-30T00:43:26.339Z,96.84
2017-06-30T00:44:07.224Z,96.84
2017-06-30T00:44:48.111Z,96.99
2017-06-30T00:45:28.999Z,97.33
2017-06-30T00:46:09.895Z,97.23
2017-06-30T00:46:50.782Z,97.23
2017-06-30T00:47:31.678Z,96.89
2017-06-30T00:48:12.562Z,97.33
2017-06-30T00:48:53.454Z,97.23
2017-06-30T00:49:34.340Z,96.75
2017-06-30T00:50:15.234Z,96.47
2017-06-30T00:50:56.134Z,96.84
2017-06-30T00:51:37.030Z,97.14
2017-06-30T00:52:17.921Z,96.84
2017-06-30T00:52:58.807Z,96.84
2017-06-30T00:53:39.703Z,97.52
2017-06-30T00:54:20.598Z,97.28
2017-06-30T00:55:01.488Z,97.42
2017-06-30T00:55:42.391Z,96.94
2017-06-30T00:56:23.281Z,97.23
2017-06-30T00:57:04.182Z,96.8
2017-06-30T00:57:45.047Z,96.66
2017-06-30T00:58:25.939Z,97.18
2017-06-30T00:59:06.838Z,97.04
2017-06-30T00:59:47.728Z,96.66
2017-06-30T01:00:28.628Z,97.14
2017-06-30T01:01:09.514Z,96.7
2017-06-30T01:01:50.401Z,96.94
2017-06-30T01:02:31.306Z,96.56
2017-06-30T01:03:12.200Z,96.75
2017-06-30T01:03:53.098Z,97.04
2017-06-30T01:04:33.998Z,96.51
2017-06-30T01:05:14.887Z,97.14
2017-06-30T01:05:55.786Z,97.42
2017-06-30T01:06:36.674Z,98.28
2017-06-30T01:07:17.566Z,98.19
2017-06-30T01:07:58.460Z,98.67
2017-06-30T01:08:39.355Z,98.47
2017-06-30T01:09:20.241Z,97.52
2017-06-30T01:10:01.137Z,98.1
2017-06-30T01:11:59.919Z,98.1
2017-06-30T01:12:40.822Z,98.19
2017-06-30T01:13:21.718Z,98
2017-06-30T01:14:02.609Z,97.42
2017-06-30T01:14:43.500Z,98
2017-06-30T01:15:24.395Z,98.1
2017-06-30T01:16:05.283Z,97.9
2017-06-30T01:16:46.172Z,97.52
2017-06-30T01:17:27.062Z,97.33
2017-06-30T01:18:07.955Z,97.71
2017-06-30T01:18:48.841Z,97.04
2017-06-30T01:19:29.729Z,97.52
2017-06-30T01:20:10.650Z,97.23
2017-06-30T01:20:51.542Z,96.84
2017-06-30T01:21:32.430Z,96.94
2017-06-30T01:22:13.322Z,97.14
2017-06-30T01:22:54.212Z,97.14
2017-06-30T01:23:35.104Z,96.56
2017-06-30T01:24:15.992Z,96.84
2017-06-30T01:24:56.882Z,96.94
2017-06-30T01:25:37.775Z,96.47
2017-06-30T01:26:18.675Z,96.37
2017-06-30T01:26:59.559Z,96.18
2017-06-30T01:27:40.470Z,96.27
2017-06-30T01:28:21.368Z,96.18
2017-06-30T01:29:02.250Z,95.41
2017-06-30T01:29:43.178Z,95.7
2017-06-30T01:30:24.046Z,94.64
2017-06-30T01:31:04.937Z,95.03
2017-06-30T01:31:45.824Z,95.31
2017-06-30T01:32:26.717Z,95.03
2017-06-30T01:33:07.607Z,95.7
2017-06-30T01:33:48.506Z,95.12
2017-06-30T01:34:29.394Z,95.31
2017-06-30T01:35:10.288Z,95.6
2017-06-30T01:35:51.182Z,95.31
2017-06-30T01:36:32.069Z,95.6
2017-06-30T01:37:12.958Z,95.84
2017-06-30T01:37:53.855Z,95.07
2017-06-30T01:38:34.744Z,94.89
2017-06-30T01:39:15.628Z,95.07
2017-06-30T01:39:56.534Z,95.07
2017-06-30T01:40:37.416Z,95.07
2017-06-30T01:41:18.302Z,95.07
2017-06-30T01:41:59.192Z,95.07
2017-06-30T01:42:40.089Z,95.75
2017-06-30T01:43:20.976Z,95.26
2017-06-30T01:44:01.864Z,95.26
2017-06-30T01:44:42.746Z,95.22
2017-06-30T01:45:23.622Z,95.22
2017-06-30T01:46:04.515Z,95.03
2017-06-30T01:46:45.402Z,95.79
2017-06-30T01:47:26.293Z,95.65
2017-06-30T01:48:07.185Z,95.84
2017-06-30T01:48:48.075Z,95.46
2017-06-30T01:49:28.971Z,95.65
2017-06-30T01:50:09.860Z,95.75
2017-06-30T01:50:50.744Z,95.46
2017-06-30T01:52:49.600Z,95.84
2017-06-30T01:53:30.492Z,96.32
2017-06-30T01:54:11.376Z,95.75
2017-06-30T01:54:52.269Z,96.51
2017-06-30T01:55:33.163Z,96.61
2017-06-30T01:56:14.056Z,96.61
2017-06-30T01:56:54.950Z,96.51
2017-06-30T01:57:35.846Z,96.42
2017-06-30T01:58:16.744Z,96.61
2017-06-30T01:58:57.632Z,96.89
2017-06-30T01:59:38.520Z,96.61
2017-06-30T02:00:19.425Z,97.09
2017-06-30T02:01:00.303Z,96.8
2017-06-30T02:01:41.194Z,96.89
2017-06-30T02:02:22.087Z,97.09
2017-06-30T02:03:02.977Z,97.09
2017-06-30T02:03:43.865Z,97.56
2017-06-30T02:04:24.765Z,96.89
2017-06-30T02:05:05.646Z,96.61
2017-06-30T02:05:46.543Z,97.28
2017-06-30T02:06:27.432Z,97.28
2017-06-30T02:07:08.319Z,96.7
2017-06-30T02:07:49.213Z,97.56
2017-06-30T02:08:30.104Z,98.14
2017-06-30T02:09:10.980Z,98.52
2017-06-30T02:09:51.867Z,98.24
2017-06-30T02:10:32.751Z,98.14
2017-06-30T02:11:13.668Z,97.56
2017-06-30T02:11:54.529Z,97.66
2017-06-30T02:12:35.424Z,97.56
2017-06-30T02:13:16.317Z,97.56
2017-06-30T02:13:57.215Z,98.14
2017-06-30T02:14:38.107Z,98.43
2017-06-30T02:15:19.014Z,98.72
2017-06-30T02:15:59.895Z,99.29
2017-06-30T02:16:40.788Z,99.29
2017-06-30T02:17:21.685Z,99.39
2017-06-30T02:18:02.591Z,99.1
2017-06-30T02:18:43.479Z,98.52
2017-06-30T02:19:24.383Z,98.52
2017-06-30T02:20:05.271Z,98.19
2017-06-30T02:20:46.164Z,98.43
2017-06-30T02:21:27.048Z,98.57
2017-06-30T02:22:07.943Z,98.28
2017-06-30T02:22:48.837Z,98.28
2017-06-30T02:23:29.720Z,98.28
2017-06-30T02:24:10.616Z,98.28
2017-06-30T02:24:51.510Z,97.33
2017-06-30T02:25:32.394Z,98.1
2017-06-30T02:26:13.272Z,98.57
2017-06-30T02:26:54.167Z,98.33
2017-06-30T02:27:35.059Z,99.1
2017-06-30T02:28:15.948Z,98.33
2017-06-30T02:28:56.831Z,98.14
2017-06-30T02:29:37.734Z,97.95
2017-06-30T02:30:18.612Z,98.24
2017-06-30T02:30:59.509Z,98.52
2017-06-30T02:31:40.407Z,98.62
2017-06-30T02:32:21.298Z,98.24
2017-06-30T02:33:02.187Z,98.76
2017-06-30T02:33:43.083Z,98.47
2017-06-30T02:34:23.974Z,99.29
2017-06-30T02:35:04.865Z,98.52
2017-06-30T02:35:45.768Z,98.62
2017-06-30T02:36:26.651Z,98.33
2017-06-30T02:37:07.540Z,98.52
2017-06-30T02:37:48.442Z,99.15
2017-06-30T02:38:29.361Z,99.05
2017-06-30T02:39:10.235Z,99.53
2017-06-30T02:39:51.122Z,98.72
2017-06-30T02:40:32.019Z,99.96
2017-06-30T02:41:12.911Z,99.58
2017-06-30T02:41:53.799Z,99.87
2017-06-30T02:42:34.690Z,99.99
2017-06-30T02:43:15.591Z,99.87
2017-06-30T02:43:56.470Z,98.91
2017-06-30T02:44:37.350Z,99.1
2017-06-30T02:45:18.239Z,99.05
2017-06-30T02:45:59.128Z,98.52
2017-06-30T02:46:40.010Z,98.52
2017-06-30T02:47:20.895Z,98.52
2017-06-30T02:48:01.820Z,98.43
2017-06-30T02:48:42.678Z,98.14
2017-06-30T02:49:23.566Z,98.05
2017-06-30T02:50:04.454Z,98.28
2017-06-30T02:50:45.351Z,99.19
2017-06-30T02:51:26.238Z,99.39
2017-06-30T02:52:07.122Z,99.19
2017-06-30T02:52:48.008Z,99.1
2017-06-30T02:53:28.901Z,99.19
2017-06-30T02:54:09.774Z,98.52
2017-06-30T02:54:50.666Z,99.48
2017-06-30T02:55:31.559Z,99.77
2017-06-30T02:56:12.446Z,99.99
2017-06-30T02:56:53.339Z,99.99
2017-06-30T02:57:34.232Z,99.99
2017-06-30T02:58:15.122Z,99.99
2017-06-30T02:58:56.186Z,99.99
2017-06-30T02:59:37.080Z,99.99
2017-06-30T03:00:17.977Z,99.99
2017-06-30T03:00:58.858Z,99.99
2017-06-30T03:01:39.749Z,99.99
2017-06-30T03:02:20.640Z,99.99
2017-06-30T03:03:01.522Z,99.99
2017-06-30T03:03:42.422Z,99.99
2017-06-30T03:04:23.311Z,99.99
2017-06-30T03:05:04.197Z,99.99
2017-06-30T03:05:45.091Z,99.99
2017-06-30T03:06:25.984Z,99.77
2017-06-30T03:07:06.873Z,99.58
2017-06-30T03:07:47.769Z,99.77
2017-06-30T03:08:28.658Z,99.87
2017-06-30T03:09:09.544Z,99.19
2017-06-30T03:09:50.446Z,99.01
2017-06-30T03:10:31.336Z,99.1
2017-06-30T03:11:12.232Z,98.81
2017-06-30T03:11:53.117Z,99.77
2017-06-30T03:12:34.008Z,99.77
2017-06-30T03:13:14.900Z,99.68
2017-06-30T03:13:55.798Z,99.99
2017-06-30T03:14:36.688Z,99.99
2017-06-30T03:15:17.582Z,99.99
2017-06-30T03:15:58.483Z,99.39
2017-06-30T03:16:39.380Z,99.19
2017-06-30T03:17:20.270Z,99.29
2017-06-30T03:18:01.205Z,98.91
2017-06-30T03:18:42.087Z,99.48
2017-06-30T03:19:22.982Z,99.29
2017-06-30T03:20:03.871Z,99.48
2017-06-30T03:20:44.753Z,99.1
2017-06-30T03:21:25.642Z,99.1
2017-06-30T03:22:06.528Z,98.91
2017-06-30T03:22:47.421Z,98.52
2017-06-30T03:23:28.317Z,98.62
2017-06-30T03:24:09.224Z,98.24
2017-06-30T03:24:50.106Z,98.91
2017-06-30T03:25:31.004Z,99.01
2017-06-30T03:26:11.908Z,98.72
2017-06-30T03:26:52.797Z,98.52
2017-06-30T03:27:33.697Z,98.24
2017-06-30T03:28:14.595Z,98.52
2017-06-30T03:28:55.494Z,98.24
2017-06-30T03:29:36.385Z,98.24
2017-06-30T03:30:17.301Z,98.14
2017-06-30T03:30:58.203Z,98.33
2017-06-30T03:31:39.084Z,98.14
2017-06-30T03:32:19.987Z,98.24
2017-06-30T03:33:00.879Z,97.85
2017-06-30T03:33:41.793Z,98.33
2017-06-30T03:34:22.677Z,98.33
2017-06-30T03:35:55.950Z,98.52
2017-06-30T03:36:36.862Z,98.52
2017-06-30T03:37:17.757Z,98.91
2017-06-30T03:37:58.647Z,98.57
2017-06-30T03:38:39.531Z,98.77
2017-06-30T03:39:20.413Z,98.57
2017-06-30T03:40:01.338Z,98.28
2017-06-30T03:40:42.221Z,98.77
2017-06-30T03:41:23.108Z,99.1
2017-06-30T03:42:03.995Z,99.15
2017-06-30T03:42:44.909Z,99.34
2017-06-30T03:43:25.762Z,99.34
2017-06-30T03:44:06.660Z,98.57
2017-06-30T03:44:47.558Z,99.01
2017-06-30T03:45:28.443Z,99.1
2017-06-30T03:46:09.330Z,99.01
2017-06-30T03:46:50.229Z,99.48
2017-06-30T03:47:31.107Z,99.44
2017-06-30T03:48:11.992Z,99.15
2017-06-30T03:48:52.880Z,99.44
2017-06-30T03:49:33.769Z,99.68
2017-06-30T03:50:14.689Z,99.01
2017-06-30T03:50:55.576Z,99.99
2017-06-30T03:51:36.463Z,99.99
2017-06-30T03:52:17.352Z,99.99
2017-06-30T03:52:58.250Z,99.99
2017-06-30T03:53:39.132Z,99.99
2017-06-30T03:54:20.012Z,99.99
2017-06-30T03:55:00.910Z,99.99
2017-06-30T03:55:41.799Z,99.99
2017-06-30T03:56:22.721Z,99.99
2017-06-30T03:57:03.606Z,99.99
2017-06-30T03:57:44.497Z,99.99
2017-06-30T03:58:25.422Z,99.99
2017-06-30T03:59:06.310Z,99.99
2017-06-30T03:59:47.263Z,99.99
2017-06-30T04:00:28.154Z,99.99
2017-06-30T04:01:09.051Z,99.99
2017-06-30T04:01:49.942Z,99.99
2017-06-30T04:02:30.813Z,99.99
2017-06-30T04:03:11.735Z,99.99
2017-06-30T04:03:52.614Z,99.99
2017-06-30T04:04:33.476Z,99.99
2017-06-30T04:05:14.360Z,99.99
2017-06-30T04:05:55.247Z,99.99
2017-06-30T04:06:36.139Z,99.99
2017-06-30T04:07:17.017Z,99.99
2017-06-30T04:07:57.923Z,99.99
2017-06-30T04:08:38.810Z,99.99
2017-06-30T04:09:19.704Z,99.99
2017-06-30T04:10:00.597Z,99.99
2017-06-30T04:10:41.482Z,99.99
2017-06-30T04:11:22.367Z,99.99
2017-06-30T04:12:03.293Z,99.99
2017-06-30T04:12:44.175Z,99.99
2017-06-30T04:13:25.070Z,99.99
2017-06-30T04:14:05.977Z,99.99
2017-06-30T04:14:46.854Z,99.99
2017-06-30T04:15:27.738Z,99.99
2017-06-30T04:16:08.631Z,99.99
2017-06-30T04:16:49.508Z,99.99
2017-06-30T04:17:30.398Z,99.99
2017-06-30T04:18:11.287Z,99.99
2017-06-30T04:18:52.179Z,99.99
2017-06-30T04:19:33.069Z,99.99
2017-06-30T04:20:13.960Z,99.99
2017-06-30T04:20:54.853Z,99.99
2017-06-30T04:21:35.746Z,99.99
2017-06-30T04:22:16.639Z,99.99
2017-06-30T04:22:57.543Z,99.99
2017-06-30T04:23:38.428Z,99.99
2017-06-30T04:24:19.325Z,99.99
2017-06-30T04:25:00.211Z,99.99
2017-06-30T04:25:41.099Z,99.99
2017-06-30T04:26:21.984Z,99.99
2017-06-30T04:27:02.884Z,99.99
2017-06-30T04:27:43.774Z,99.99
2017-06-30T04:28:24.656Z,99.99
2017-06-30T04:29:05.551Z,99.99
2017-06-30T04:29:46.450Z,99.99
2017-06-30T04:30:27.335Z,99.99
2017-06-30T04:31:08.231Z,99.99
2017-06-30T04:31:49.123Z,99.99
2017-06-30T04:32:30.016Z,99.99
2017-06-30T04:33:10.916Z,99.99
2017-06-30T04:33:51.823Z,99.99
2017-06-30T04:34:32.710Z,99.99
2017-06-30T04:35:13.603Z,99.99
2017-06-30T04:35:54.496Z,99.99
2017-06-30T04:36:35.387Z,99.99
2017-06-30T04:37:16.285Z,99.99
2017-06-30T04:37:57.169Z,99.99
2017-06-30T04:38:38.070Z,99.99
2017-06-30T04:39:18.958Z,99.99
2017-06-30T04:39:59.850Z,99.99
2017-06-30T04:40:40.737Z,99.99
2017-06-30T04:41:21.618Z,99.99
2017-06-30T04:42:02.528Z,99.99
2017-06-30T04:42:43.388Z,99.99
2017-06-30T04:43:24.282Z,99.99
2017-06-30T04:44:05.172Z,99.99
2017-06-30T04:44:46.054Z,99.99
2017-06-30T04:45:26.950Z,99.99
2017-06-30T04:46:07.841Z,99.99
2017-06-30T04:46:48.721Z,99.99
2017-06-30T04:47:29.595Z,99.99
2017-06-30T04:48:10.481Z,99.99
2017-06-30T04:48:51.369Z,99.99
2017-06-30T04:49:32.268Z,99.99
2017-06-30T04:50:13.164Z,99.99
2017-06-30T04:50:54.052Z,99.99
2017-06-30T04:51:34.942Z,99.99
2017-06-30T04:52:15.840Z,99.99
2017-06-30T04:52:56.736Z,99.99
2017-06-30T04:53:37.624Z,99.99
2017-06-30T04:54:18.527Z,99.99
2017-06-30T04:54:59.416Z,99.99
2017-06-30T04:55:40.322Z,99.99
2017-06-30T04:56:21.206Z,99.99
2017-06-30T04:57:02.106Z,99.99
2017-06-30T04:57:43.000Z,99.99
2017-06-30T04:58:23.884Z,99.99
2017-06-30T04:59:04.759Z,99.99
2017-06-30T04:59:45.655Z,99.99
2017-06-30T05:00:26.598Z,99.99
2017-06-30T05:01:07.440Z,99.99
2017-06-30T05:01:48.349Z,99.99
2017-06-30T05:02:29.232Z,99.99
2017-06-30T05:03:10.143Z,99.99
2017-06-30T05:03:51.008Z,99.99
2017-06-30T05:04:31.915Z,99.99
2017-06-30T05:05:12.796Z,99.99
2017-06-30T05:05:53.722Z,99.99
2017-06-30T05:06:34.608Z,99.99
2017-06-30T05:07:15.503Z,99.99
2017-06-30T05:07:56.394Z,99.99
2017-06-30T05:08:37.413Z,99.99
2017-06-30T05:09:18.310Z,99.99
2017-06-30T05:09:59.198Z,99.99
2017-06-30T05:10:40.145Z,99.99
2017-06-30T05:11:21.037Z,99.99
2017-06-30T05:12:01.949Z,99.99
2017-06-30T05:12:42.842Z,99.99
2017-06-30T05:13:23.730Z,99.99
2017-06-30T05:14:04.624Z,99.99
2017-06-30T05:14:45.494Z,99.99
2017-06-30T05:15:26.385Z,99.99
2017-06-30T05:16:07.300Z,99.99
2017-06-30T05:16:48.169Z,99.99
2017-06-30T05:17:29.047Z,99.99
2017-06-30T05:18:09.937Z,99.99
2017-06-30T05:18:50.835Z,99.99
2017-06-30T05:19:31.710Z,99.99
2017-06-30T05:20:12.602Z,99.99
2017-06-30T05:20:53.493Z,99.99
2017-06-30T05:21:34.377Z,99.99
2017-06-30T05:22:15.276Z,99.99
2017-06-30T05:22:56.166Z,99.99
2017-06-30T05:23:37.042Z,99.99
2017-06-30T05:24:17.925Z,99.99
2017-06-30T05:24:58.813Z,99.99
2017-06-30T05:25:39.707Z,99.99
2017-06-30T05:26:20.602Z,99.99
2017-06-30T05:27:01.489Z,99.99
2017-06-30T05:27:42.393Z,99.99
2017-06-30T05:28:23.283Z,99.99
2017-06-30T05:29:04.177Z,99.99
2017-06-30T05:29:45.068Z,99.99
2017-06-30T05:30:25.955Z,99.99
2017-06-30T05:31:06.839Z,99.99
2017-06-30T05:31:47.732Z,99.99
2017-06-30T05:32:28.621Z,99.99
2017-06-30T05:33:09.649Z,99.99
2017-06-30T05:33:50.475Z,99.99
2017-06-30T05:34:31.364Z,99.99
2017-06-30T05:35:12.257Z,99.99
2017-06-30T05:35:53.145Z,99.99
2017-06-30T05:36:34.035Z,99.99
2017-06-30T05:37:14.925Z,99.99
2017-06-30T05:37:55.811Z,99.99
2017-06-30T05:38:36.694Z,99.99
2017-06-30T05:39:17.589Z,99.99
2017-06-30T05:39:58.474Z,99.99
2017-06-30T05:40:39.359Z,99.99
2017-06-30T05:41:20.262Z,99.99
2017-06-30T05:42:01.144Z,99.99
2017-06-30T05:42:42.034Z,99.99
2017-06-30T05:43:22.926Z,99.99
2017-06-30T05:44:03.840Z,99.99
2017-06-30T05:44:44.729Z,99.99
2017-06-30T05:45:25.616Z,99.99
2017-06-30T05:46:06.505Z,99.99
2017-06-30T05:46:47.392Z,99.99
2017-06-30T05:47:28.290Z,99.99
2017-06-30T05:48:09.166Z,99.99
2017-06-30T05:48:50.061Z,99.99
2017-06-30T05:49:30.949Z,99.99
2017-06-30T05:50:11.838Z,99.99
2017-06-30T05:50:52.716Z,99.99
2017-06-30T05:51:33.628Z,99.99
2017-06-30T05:52:14.512Z,99.99
2017-06-30T05:52:55.400Z,99.99
2017-06-30T05:53:36.300Z,99.99
2017-06-30T05:54:17.191Z,99.99
2017-06-30T05:54:58.070Z,99.99
2017-06-30T05:55:38.964Z,99.99
2017-06-30T05:56:19.852Z,99.99
2017-06-30T05:57:00.768Z,99.99
2017-06-30T05:57:41.652Z,99.99
2017-06-30T05:58:22.535Z,99.99
2017-06-30T05:59:03.416Z,99.99
2017-06-30T05:59:44.332Z,99.99
2017-06-30T06:00:25.213Z,99.99
2017-06-30T06:01:06.121Z,99.99
2017-06-30T06:01:47.025Z,99.99
2017-06-30T06:02:27.908Z,99.99
2017-06-30T06:03:08.794Z,99.99
2017-06-30T06:03:49.687Z,99.99
2017-06-30T06:04:30.582Z,99.99
2017-06-30T06:05:11.477Z,99.99
2017-06-30T06:05:52.377Z,99.99
2017-06-30T06:06:33.254Z,99.99
2017-06-30T06:07:14.148Z,99.99
2017-06-30T06:07:55.036Z,99.99
2017-06-30T06:10:09.792Z,99.99
2017-06-30T06:10:50.678Z,99.99
2017-06-30T06:11:31.538Z,99.99
2017-06-30T06:12:12.430Z,99.99
2017-06-30T06:12:53.379Z,99.99
2017-06-30T06:13:34.188Z,99.99
2017-06-30T06:14:15.081Z,99.99
2017-06-30T06:15:02.614Z,99.99
2017-06-30T06:15:43.507Z,99.99
2017-06-30T06:17:42.058Z,99.99
2017-06-30T06:18:22.946Z,99.99
2017-06-30T06:19:03.831Z,99.99
2017-06-30T06:19:44.719Z,99.99
2017-06-30T06:20:25.612Z,99.99
2017-06-30T06:21:06.496Z,99.99
2017-06-30T06:21:47.381Z,99.99
2017-06-30T06:22:28.269Z,99.99
2017-06-30T06:23:09.146Z,99.99
2017-06-30T06:25:11.764Z,99.99
2017-06-30T06:25:52.637Z,99.99
2017-06-30T06:27:40.904Z,99.99
2017-06-30T06:28:21.772Z,99.99
2017-06-30T06:30:35.537Z,99.99
2017-06-30T06:31:16.432Z,99.99
2017-06-30T06:33:30.197Z,99.99
2017-06-30T06:34:26.029Z,99.99
2017-06-30T06:36:24.606Z,99.99
2017-06-30T06:37:05.491Z,99.99
2017-06-30T06:39:20.208Z,99.99
2017-06-30T06:40:16.080Z,99.99
2017-06-30T06:42:18.688Z,99.99
2017-06-30T06:42:59.579Z,99.99
2017-06-30T06:44:47.839Z,99.99
2017-06-30T06:45:28.757Z,99.99
2017-06-30T06:46:09.603Z,99.99
2017-06-30T06:46:50.485Z,99.99
2017-06-30T06:47:31.359Z,99.99
2017-06-30T06:48:12.245Z,99.99
2017-06-30T06:48:53.141Z,99.99
2017-06-30T06:49:34.875Z,99.99
2017-06-30T06:50:15.764Z,99.99
2017-06-30T06:50:56.649Z,99.99
2017-06-30T06:51:37.535Z,99.99
2017-06-30T06:53:35.675Z,99.99
2017-06-30T06:54:16.576Z,99.99
2017-06-30T06:54:57.464Z,99.99
2017-06-30T06:55:38.352Z,99.99
2017-06-30T06:56:19.240Z,99.99
2017-06-30T06:57:00.124Z,99.99
2017-06-30T06:57:41.058Z,99.99
2017-06-30T06:59:59.945Z,99.99
2017-06-30T07:00:42.623Z,99.99
2017-06-30T07:02:43.856Z,99.99
2017-06-30T07:03:24.745Z,99.99
2017-06-30T07:04:05.638Z,99.99
2017-06-30T07:04:46.531Z,99.99
2017-06-30T07:06:45.091Z,99.99
2017-06-30T07:07:25.976Z,99.99
2017-06-30T07:09:39.727Z,99.99
2017-06-30T07:10:20.623Z,99.99
2017-06-30T07:11:01.520Z,99.99
2017-06-30T07:11:42.399Z,99.99
2017-06-30T07:12:23.282Z,99.99
2017-06-30T07:14:17.886Z,99.99
2017-06-30T07:16:34.234Z,99.99
2017-06-30T07:17:15.125Z,99.99
2017-06-30T07:18:08.442Z,99.99
2017-06-30T07:18:49.313Z,99.99
2017-06-30T07:19:30.485Z,99.99
2017-06-30T07:20:11.345Z,99.99
2017-06-30T07:20:52.240Z,99.99
2017-06-30T07:22:45.771Z,99.99
2017-06-30T07:23:26.703Z,99.99
2017-06-30T07:24:09.430Z,99.99
2017-06-30T07:24:50.388Z,99.99
2017-06-30T07:25:31.716Z,99.99
2017-06-30T07:26:12.795Z,99.99
2017-06-30T07:26:53.747Z,99.99
2017-06-30T07:27:34.666Z,99.99
2017-06-30T07:28:15.567Z,99.99
2017-06-30T07:28:56.470Z,99.99
2017-06-30T07:29:37.543Z,99.99
2017-06-30T07:30:19.122Z,99.99
2017-06-30T07:32:20.734Z,99.99
2017-06-30T07:33:03.288Z,99.99
2017-06-30T07:33:44.183Z,99.99
2017-06-30T07:34:25.064Z,99.99
2017-06-30T07:35:05.940Z,99.99
2017-06-30T07:35:46.799Z,99.99
2017-06-30T07:36:27.851Z,99.99
2017-06-30T07:37:11.620Z,99.99
2017-06-30T07:37:52.599Z,99.99
2017-06-30T07:38:33.486Z,99.99
2017-06-30T07:39:14.371Z,99.99
2017-06-30T07:39:55.251Z,99.99
2017-06-30T07:40:36.139Z,99.99
2017-06-30T07:41:17.027Z,99.99
2017-06-30T07:41:57.935Z,99.99
2017-06-30T07:42:38.812Z,99.99
2017-06-30T07:43:19.693Z,99.99
2017-06-30T07:44:00.568Z,99.99
2017-06-30T07:44:41.439Z,99.99
2017-06-30T07:45:22.318Z,99.99
2017-06-30T07:46:03.204Z,99.99
2017-06-30T07:46:44.086Z,99.99
2017-06-30T07:47:24.954Z,99.99
2017-06-30T07:48:05.819Z,99.99
2017-06-30T07:48:46.703Z,99.99
2017-06-30T07:49:27.617Z,99.99
2017-06-30T07:50:08.543Z,99.99
2017-06-30T07:50:49.420Z,99.99
2017-06-30T07:51:30.295Z,99.99
2017-06-30T07:52:11.182Z,99.99
2017-06-30T07:52:52.069Z,99.99
2017-06-30T07:53:33.043Z,99.99
2017-06-30T07:54:14.996Z,99.99
2017-06-30T07:54:56.386Z,99.99
2017-06-30T07:55:38.141Z,99.99
2017-06-30T07:56:19.211Z,99.99
2017-06-30T07:57:02.273Z,99.99
2017-06-30T07:57:43.649Z,99.99
2017-06-30T07:58:24.614Z,99.99
2017-06-30T07:59:05.961Z,99.99
2017-06-30T07:59:46.841Z,99.99
2017-06-30T08:00:27.720Z,99.99
2017-06-30T08:01:08.607Z,99.99
2017-06-30T08:01:50.116Z,99.99
2017-06-30T08:03:49.015Z,99.99
2017-06-30T08:04:36.740Z,99.99
2017-06-30T08:05:17.634Z,99.99
2017-06-30T08:05:58.523Z,99.99
2017-06-30T08:08:12.280Z,99.99
2017-06-30T08:08:53.174Z,99.99
2017-06-30T08:09:34.055Z,99.99
2017-06-30T08:10:14.942Z,99.99
2017-06-30T08:10:55.833Z,99.99
2017-06-30T08:12:44.097Z,99.99
2017-06-30T08:13:24.981Z,99.99
2017-06-30T08:14:05.857Z,99.99
2017-06-30T08:14:46.744Z,99.99
2017-06-30T08:15:27.637Z,99.99
2017-06-30T08:16:08.522Z,99.99
2017-06-30T08:18:22.314Z,99.99
2017-06-30T08:19:03.214Z,99.99
2017-06-30T08:19:50.833Z,99.99
2017-06-30T08:22:09.727Z,99.99
2017-06-30T08:23:11.539Z,99.99
2017-06-30T08:23:52.427Z,99.99
2017-06-30T08:24:33.319Z,99.99
2017-06-30T08:25:14.311Z,99.99
2017-06-30T08:27:02.488Z,99.99
2017-06-30T08:27:43.385Z,99.99
2017-06-30T08:28:24.273Z,99.99
2017-06-30T08:29:05.876Z,99.99
2017-06-30T08:31:06.290Z,99.99
2017-06-30T08:31:47.193Z,99.99
2017-06-30T08:32:28.074Z,99.99
2017-06-30T08:33:08.963Z,99.99
2017-06-30T08:33:49.852Z,99.99
2017-06-30T08:34:30.741Z,99.99
2017-06-30T08:35:11.623Z,99.99
2017-06-30T08:35:52.513Z,99.99
2017-06-30T08:36:33.411Z,99.99
2017-06-30T08:37:14.294Z,99.99
2017-06-30T08:37:55.202Z,99.99
2017-06-30T08:38:36.097Z,99.99
2017-06-30T08:39:16.994Z,99.99
2017-06-30T08:39:57.876Z,99.99
2017-06-30T08:40:39.700Z,99.99
2017-06-30T08:41:20.546Z,99.99
2017-06-30T08:42:01.422Z,99.99
2017-06-30T08:42:42.310Z,99.99
2017-06-30T08:43:24.839Z,99.99
2017-06-30T08:44:07.614Z,99.99
2017-06-30T08:44:48.508Z,99.99
2017-06-30T08:45:29.395Z,99.99
2017-06-30T08:46:10.294Z,99.99
2017-06-30T08:46:51.189Z,99.99
2017-06-30T08:47:32.076Z,99.99
2017-06-30T08:48:12.967Z,99.99
2017-06-30T08:48:53.864Z,99.99
2017-06-30T08:49:34.756Z,99.99
2017-06-30T08:50:15.678Z,99.99
2017-06-30T08:50:56.581Z,99.99
2017-06-30T08:51:37.461Z,99.99
2017-06-30T08:52:18.351Z,99.99
2017-06-30T08:52:59.243Z,99.99
2017-06-30T08:53:40.132Z,99.99
2017-06-30T08:54:21.040Z,99.99
2017-06-30T08:55:01.921Z,99.99
2017-06-30T08:55:42.852Z,99.99
2017-06-30T08:56:23.742Z,99.99
2017-06-30T08:57:04.664Z,99.99
2017-06-30T08:57:45.556Z,99.99
2017-06-30T08:58:26.438Z,99.99
2017-06-30T08:59:07.342Z,99.99
2017-06-30T08:59:48.208Z,99.99
2017-06-30T09:00:29.092Z,99.99
2017-06-30T09:01:09.988Z,99.99
2017-06-30T09:01:52.471Z,99.99
2017-06-30T09:02:33.364Z,99.99
2017-06-30T09:03:14.273Z,99.99
2017-06-30T09:03:55.139Z,99.99
2017-06-30T09:04:36.028Z,99.99
2017-06-30T09:05:16.928Z,99.99
2017-06-30T09:05:57.827Z,99.99
2017-06-30T09:06:38.726Z,99.99
2017-06-30T09:07:21.172Z,99.99
2017-06-30T09:08:02.014Z,99.99
2017-06-30T09:08:42.908Z,99.99
2017-06-30T09:09:23.796Z,99.99
2017-06-30T09:10:04.689Z,99.99
2017-06-30T09:10:45.602Z,99.99
2017-06-30T09:11:26.491Z,99.99
2017-06-30T09:12:07.358Z,99.99
2017-06-30T09:12:48.255Z,99.99
2017-06-30T09:13:29.151Z,99.99
2017-06-30T09:14:10.047Z,99.99
2017-06-30T09:14:50.945Z,99.99
2017-06-30T09:15:31.854Z,99.99
2017-06-30T09:16:12.735Z,99.99
2017-06-30T09:16:53.634Z,99.99
2017-06-30T09:17:34.587Z,99.99
2017-06-30T09:18:15.488Z,99.99
2017-06-30T09:18:56.385Z,99.99
2017-06-30T09:19:39.847Z,99.99
2017-06-30T09:20:20.743Z,99.99
2017-06-30T09:21:01.658Z,99.99
2017-06-30T09:21:42.539Z,99.99
2017-06-30T09:22:23.423Z,99.99
2017-06-30T09:23:04.331Z,99.99
2017-06-30T09:23:45.205Z,99.99
2017-06-30T09:24:27.639Z,99.99
2017-06-30T09:25:08.539Z,99.99
2017-06-30T09:25:51.187Z,99.99
2017-06-30T09:26:32.056Z,99.99
2017-06-30T09:27:12.954Z,99.99
2017-06-30T09:27:53.841Z,99.99
2017-06-30T09:28:34.723Z,99.99